Time;durP1;ratioP1;P1;durP2;ratioP2;P2;SDS_P1;SDS_P2;PMS_P1;PMS_P2;Temp;Humidity;BMP_temperature;BMP_pressure;BME280_temperature;BME280_humidity;BME280_pressure;Samples;Min_cycle;Max_cycle;Signal;HPM_P1;HPM_P2
2022/02/11 00:00:50;;;;;;;6.80;3.63;;;;;;;;;;5070912;28;20407;-62
2022/02/11 00:08:27;;;;;;;5.72;3.03;;;;;;;;;;5071113;28;20082;-65
2022/02/11 00:10:53;;;;;;;6.50;3.28;;;;;;;;;;5071937;28;20027;-66
2022/02/11 00:13:19;;;;;;;5.72;3.03;;;;;;;;;;5074523;28;20033;-64
2022/02/11 00:15:47;;;;;;;6.05;3.22;;;;;;;;;;5074663;28;20020;-63
2022/02/11 00:18:16;;;;;;;5.95;2.88;;;;;;;;;;5074378;28;20024;-64
2022/02/11 00:20:45;;;;;;;4.72;3.03;;;;;;;;;;5074405;28;20025;-64
2022/02/11 00:23:11;;;;;;;5.80;3.17;;;;;;;;;;5074506;28;20027;-65
2022/02/11 00:25:45;;;;;;;5.93;3.13;;;;;;;;;;5074776;28;20028;-63
2022/02/11 00:33:29;;;;;;;7.78;3.30;;;;;;;;;;5074796;28;20047;-61
2022/02/11 00:36:02;;;;;;;5.55;3.45;;;;;;;;;;5074398;28;20020;-62
2022/02/11 00:38:41;;;;;;;5.88;3.08;;;;;;;;;;5074388;28;20024;-62
2022/02/11 00:47:14;;;;;;;5.57;2.97;;;;;;;;;;5074345;28;20082;-62
2022/02/11 01:06:08;;;;;;;7.85;3.28;;;;;;;;;;5074084;28;20075;-61
2022/02/11 01:08:35;;;;;;;6.68;3.00;;;;;;;;;;5073824;28;20060;-62
2022/02/11 01:11:02;;;;;;;6.13;3.53;;;;;;;;;;5073864;28;20062;-60
2022/02/11 01:13:28;;;;;;;6.22;3.30;;;;;;;;;;5073687;28;20035;-62
2022/02/11 01:16:05;;;;;;;5.88;3.13;;;;;;;;;;5073692;28;20024;-61
2022/02/11 01:18:32;;;;;;;5.53;2.95;;;;;;;;;;5073446;28;20059;-64
2022/02/11 01:21:06;;;;;;;7.50;2.88;;;;;;;;;;5074188;28;20028;-61
2022/02/11 01:29:18;;;;;;;6.13;3.13;;;;;;;;;;5073484;28;20280;-63
2022/02/11 01:31:53;;;;;;;7.03;3.08;;;;;;;;;;5073199;28;20043;-65
2022/02/11 01:34:49;;;;;;;5.15;2.92;;;;;;;;;;5073331;28;20499;-63
2022/02/11 02:13:07;;;;;;;4.82;2.90;;;;;;;;;;5049891;28;20048;-65
2022/02/11 02:50:13;;;;;;;5.68;2.72;;;;;;;;;;5092013;28;20039;-64
2022/02/11 02:58:16;;;;;;;6.75;3.05;;;;;;;;;;5092011;28;20202;-66
2022/02/11 03:14:48;;;;;;;4.82;2.53;;;;;;;;;;5092183;28;20089;-61
2022/02/11 04:56:11;;;;;;;5.35;2.80;;;;;;;;;;5094094;28;20036;-65
2022/02/11 05:01:21;;;;;;;6.97;3.08;;;;;;;;;;5094112;28;20063;-65
2022/02/11 05:03:47;;;;;;;7.53;3.30;;;;;;;;;;5094299;28;20024;-62
2022/02/11 05:06:13;;;;;;;5.65;3.00;;;;;;;;;;5094247;28;20020;-66
2022/02/11 05:08:39;;;;;;;6.03;3.03;;;;;;;;;;5093923;28;20418;-65
2022/02/11 05:11:09;;;;;;;5.63;2.67;;;;;;;;;;5094005;28;20023;-64
2022/02/11 05:13:37;;;;;;;4.90;2.58;;;;;;;;;;5093699;28;20232;-65
2022/02/11 05:16:03;;;;;;;5.22;2.67;;;;;;;;;;5093691;28;20016;-63
2022/02/11 05:18:29;;;;;;;4.93;2.75;;;;;;;;;;5093966;28;20024;-63
2022/02/11 05:20:55;;;;;;;4.60;2.38;;;;;;;;;;5093940;28;20028;-62
2022/02/11 05:23:21;;;;;;;6.32;2.92;;;;;;;;;;5093699;28;20050;-63
2022/02/11 05:25:47;;;;;;;6.15;3.20;;;;;;;;;;5093714;28;20489;-65
2022/02/11 05:28:14;;;;;;;5.97;2.47;;;;;;;;;;5093640;28;20070;-65
2022/02/11 05:30:40;;;;;;;4.95;2.72;;;;;;;;;;5093951;28;20425;-64
2022/02/11 05:33:07;;;;;;;5.22;2.78;;;;;;;;;;5093396;28;20249;-64
2022/02/11 05:35:33;;;;;;;6.18;3.00;;;;;;;;;;5093689;28;20066;-66
2022/02/11 05:37:59;;;;;;;6.15;2.97;;;;;;;;;;5093515;28;20099;-64
2022/02/11 05:40:26;;;;;;;5.25;2.90;;;;;;;;;;5093452;28;20017;-65
2022/02/11 05:42:52;;;;;;;5.82;3.10;;;;;;;;;;5093411;28;20058;-62
2022/02/11 05:45:18;;;;;;;5.25;2.95;;;;;;;;;;5093297;28;20099;-62
2022/02/11 05:47:44;;;;;;;6.10;2.88;;;;;;;;;;5093299;28;20031;-65
2022/02/11 05:50:10;;;;;;;5.53;3.05;;;;;;;;;;5093241;28;20099;-65
2022/02/11 05:52:37;;;;;;;5.95;2.83;;;;;;;;;;5093123;28;20032;-65
2022/02/11 05:55:04;;;;;;;6.10;2.92;;;;;;;;;;5093192;28;20027;-62
2022/02/11 05:57:30;;;;;;;7.90;3.10;;;;;;;;;;5092924;28;20056;-65
2022/02/11 05:59:56;;;;;;;6.47;2.70;;;;;;;;;;5092735;28;20039;-62
2022/02/11 06:02:22;;;;;;;8.07;2.97;;;;;;;;;;5092988;28;20028;-65
2022/02/11 06:04:49;;;;;;;5.45;3.42;;;;;;;;;;5092992;28;20111;-64
2022/02/11 06:07:15;;;;;;;5.82;3.33;;;;;;;;;;5092833;28;20027;-65
2022/02/11 06:09:41;;;;;;;7.72;3.40;;;;;;;;;;5092695;28;20027;-62
2022/02/11 06:12:08;;;;;;;6.75;3.40;;;;;;;;;;5092771;28;20505;-65
2022/02/11 06:14:36;;;;;;;6.53;3.47;;;;;;;;;;5092717;28;20031;-63
2022/02/11 06:17:03;;;;;;;6.22;2.60;;;;;;;;;;5092618;28;20020;-64
2022/02/11 06:19:29;;;;;;;5.80;2.83;;;;;;;;;;5092632;28;20020;-62
2022/02/11 06:21:55;;;;;;;5.35;3.08;;;;;;;;;;5074436;28;20055;-63
2022/02/11 06:24:21;;;;;;;6.72;3.05;;;;;;;;;;5092646;28;20031;-62
2022/02/11 06:26:47;;;;;;;5.50;3.00;;;;;;;;;;5092457;28;20020;-64
2022/02/11 06:29:13;;;;;;;6.57;3.33;;;;;;;;;;5092369;28;20467;-64
2022/02/11 06:31:40;;;;;;;6.72;3.83;;;;;;;;;;5092457;28;20047;-65
2022/02/11 06:34:06;;;;;;;6.80;3.70;;;;;;;;;;5092375;28;20032;-64
2022/02/11 06:36:32;;;;;;;7.03;3.53;;;;;;;;;;5074082;28;20157;-64
2022/02/11 06:38:59;;;;;;;5.97;3.05;;;;;;;;;;5092065;28;20024;-63
2022/02/11 06:41:25;;;;;;;6.60;3.78;;;;;;;;;;5092068;28;20020;-65
2022/02/11 06:43:51;;;;;;;6.13;3.50;;;;;;;;;;5092100;28;20027;-65
2022/02/11 06:46:20;;;;;;;5.90;3.63;;;;;;;;;;5092347;28;20034;-61
2022/02/11 06:48:47;;;;;;;5.68;3.30;;;;;;;;;;5092186;28;20017;-65
2022/02/11 06:51:13;;;;;;;6.22;3.65;;;;;;;;;;5092029;28;20076;-61
2022/02/11 06:53:39;;;;;;;8.15;3.83;;;;;;;;;;5091906;28;20039;-65
2022/02/11 06:56:05;;;;;;;5.60;3.53;;;;;;;;;;5092203;28;20020;-63
2022/02/11 06:58:31;;;;;;;7.30;3.92;;;;;;;;;;5091877;28;20372;-64
2022/02/11 07:00:58;;;;;;;6.18;3.35;;;;;;;;;;5091749;28;20090;-63
2022/02/11 07:03:24;;;;;;;6.40;3.55;;;;;;;;;;5091773;28;20028;-62
2022/02/11 07:05:56;;;;;;;8.27;3.60;;;;;;;;;;5091687;28;20036;-65
2022/02/11 07:08:24;;;;;;;8.03;3.60;;;;;;;;;;5091566;28;20028;-64
2022/02/11 07:10:50;;;;;;;7.35;3.22;;;;;;;;;;5091825;28;20031;-61
2022/02/11 07:13:16;;;;;;;7.53;3.90;;;;;;;;;;5091562;28;20119;-61
2022/02/11 07:15:45;;;;;;;6.22;3.70;;;;;;;;;;5073150;28;20430;-61
2022/02/11 07:18:12;;;;;;;6.72;3.85;;;;;;;;;;5091532;28;20024;-61
2022/02/11 07:20:39;;;;;;;7.13;4.03;;;;;;;;;;5091017;28;20027;-65
2022/02/11 07:23:05;;;;;;;8.48;4.03;;;;;;;;;;5091687;28;20046;-65
2022/02/11 07:25:35;;;;;;;7.80;4.15;;;;;;;;;;5091450;28;20032;-65
2022/02/11 07:28:01;;;;;;;8.43;4.07;;;;;;;;;;5091369;28;20044;-65
2022/02/11 07:30:27;;;;;;;9.18;4.47;;;;;;;;;;5091471;28;20030;-65
2022/02/11 07:32:53;;;;;;;11.32;4.57;;;;;;;;;;5091429;28;20070;-63
2022/02/11 07:35:23;;;;;;;8.25;4.20;;;;;;;;;;5073398;28;20024;-65
2022/02/11 07:37:50;;;;;;;7.00;4.07;;;;;;;;;;5091272;28;20054;-62
2022/02/11 07:40:16;;;;;;;7.65;4.25;;;;;;;;;;5091426;28;20043;-61
2022/02/11 07:42:44;;;;;;;8.75;4.47;;;;;;;;;;5091368;28;20016;-63
2022/02/11 07:45:11;;;;;;;8.38;4.18;;;;;;;;;;5091373;28;20105;-64
2022/02/11 07:47:37;;;;;;;7.47;4.45;;;;;;;;;;5091394;28;20634;-65
2022/02/11 07:50:03;;;;;;;10.23;4.80;;;;;;;;;;5091383;28;20103;-60
2022/02/11 07:52:29;;;;;;;7.70;4.43;;;;;;;;;;5091245;28;20086;-63
2022/02/11 07:54:55;;;;;;;8.85;4.65;;;;;;;;;;5091420;28;20016;-65
2022/02/11 07:57:23;;;;;;;10.32;4.28;;;;;;;;;;5091291;28;20012;-66
2022/02/11 07:59:49;;;;;;;7.03;4.20;;;;;;;;;;5091215;28;20036;-63
2022/02/11 08:02:16;;;;;;;7.47;4.30;;;;;;;;;;5091468;28;20020;-64
2022/02/11 08:04:42;;;;;;;7.82;4.72;;;;;;;;;;5091036;28;20513;-65
2022/02/11 08:07:08;;;;;;;9.63;4.70;;;;;;;;;;5091214;28;20020;-65
2022/02/11 08:09:35;;;;;;;8.65;4.63;;;;;;;;;;5091261;28;20017;-65
2022/02/11 08:12:01;;;;;;;7.85;4.95;;;;;;;;;;5091086;28;20035;-65
2022/02/11 08:14:27;;;;;;;8.60;5.43;;;;;;;;;;5090892;28;20040;-61
2022/02/11 08:16:53;;;;;;;9.10;5.10;;;;;;;;;;5090686;28;20020;-61
2022/02/11 08:19:19;;;;;;;13.32;5.43;;;;;;;;;;5090963;28;20024;-61
2022/02/11 08:21:49;;;;;;;9.70;4.93;;;;;;;;;;5091089;28;20016;-65
2022/02/11 08:24:15;;;;;;;11.60;5.70;;;;;;;;;;5091151;28;20075;-66
2022/02/11 08:26:42;;;;;;;10.68;6.03;;;;;;;;;;5090927;28;20020;-64
2022/02/11 08:29:13;;;;;;;9.98;5.65;;;;;;;;;;5090779;28;20086;-64
2022/02/11 08:31:39;;;;;;;9.73;5.65;;;;;;;;;;5091060;28;20012;-62
2022/02/11 08:34:05;;;;;;;9.38;5.55;;;;;;;;;;5094618;28;20028;-63
2022/02/11 08:36:31;;;;;;;10.13;5.80;;;;;;;;;;5094540;28;20054;-62
2022/02/11 08:38:58;;;;;;;9.65;6.10;;;;;;;;;;5094669;28;20035;-65
2022/02/11 08:41:24;;;;;;;9.75;5.28;;;;;;;;;;5076520;28;20024;-63
2022/02/11 08:43:50;;;;;;;10.95;6.10;;;;;;;;;;5094677;28;20470;-62
2022/02/11 08:46:16;;;;;;;11.07;5.95;;;;;;;;;;5094519;28;20027;-59
2022/02/11 08:48:42;;;;;;;11.85;6.65;;;;;;;;;;5094447;28;20020;-60
2022/02/11 08:51:09;;;;;;;15.52;7.03;;;;;;;;;;5094418;28;20074;-61
2022/02/11 08:53:36;;;;;;;13.98;6.78;;;;;;;;;;5094184;28;20035;-59
2022/02/11 08:56:06;;;;;;;10.27;6.22;;;;;;;;;;5094209;28;20047;-65
2022/02/11 08:58:32;;;;;;;11.25;6.57;;;;;;;;;;5094162;28;20498;-59
2022/02/11 09:00:58;;;;;;;11.18;6.43;;;;;;;;;;5094004;28;20173;-62
2022/02/11 09:03:24;;;;;;;13.55;7.10;;;;;;;;;;5094110;28;20024;-62
2022/02/11 09:05:50;;;;;;;16.05;6.90;;;;;;;;;;5094158;28;20125;-61
2022/02/11 09:08:16;;;;;;;20.98;7.30;;;;;;;;;;5093961;28;20024;-60
2022/02/11 09:10:47;;;;;;;11.70;6.80;;;;;;;;;;5093963;28;20050;-61
2022/02/11 09:13:14;;;;;;;12.90;7.07;;;;;;;;;;5093962;28;20495;-63
2022/02/11 09:15:40;;;;;;;15.05;7.88;;;;;;;;;;5093856;28;20031;-59
2022/02/11 09:18:06;;;;;;;13.50;7.72;;;;;;;;;;5093921;28;20028;-60
2022/02/11 09:20:32;;;;;;;13.43;7.35;;;;;;;;;;5093656;28;20020;-61
2022/02/11 09:22:59;;;;;;;11.65;6.88;;;;;;;;;;5093729;28;20544;-61
2022/02/11 09:25:26;;;;;;;13.63;7.57;;;;;;;;;;5093585;28;20028;-61
2022/02/11 09:27:52;;;;;;;12.20;7.43;;;;;;;;;;5093573;28;20499;-63
2022/02/11 09:30:22;;;;;;;13.10;7.22;;;;;;;;;;5093706;28;20031;-62
2022/02/11 09:32:49;;;;;;;12.18;7.50;;;;;;;;;;5075663;28;20024;-61
2022/02/11 09:35:16;;;;;;;12.73;8.10;;;;;;;;;;5093593;28;20027;-60
2022/02/11 09:37:42;;;;;;;12.88;7.43;;;;;;;;;;5093404;28;20174;-63
2022/02/11 09:40:10;;;;;;;12.05;7.63;;;;;;;;;;5093519;28;20026;-62
2022/02/11 09:42:38;;;;;;;13.73;7.22;;;;;;;;;;5093178;28;20368;-62
2022/02/11 09:45:06;;;;;;;13.27;7.45;;;;;;;;;;5092561;28;20601;-62
2022/02/11 09:47:32;;;;;;;17.58;8.13;;;;;;;;;;5093152;28;20421;-62
2022/02/11 09:49:58;;;;;;;13.00;7.45;;;;;;;;;;5093011;28;20027;-63
2022/02/11 09:52:27;;;;;;;14.05;7.50;;;;;;;;;;5092925;28;20065;-63
2022/02/11 09:55:31;;;;;;;13.52;8.25;;;;;;;;;;5093216;28;20024;-62
2022/02/11 09:57:43;;;;;;;16.13;8.43;;;;;;;;;;5092741;28;20024;-62
2022/02/11 10:00:10;;;;;;;10.45;6.75;;;;;;;;;;5093037;28;20182;-63
2022/02/11 10:02:48;;;;;;;13.07;7.55;;;;;;;;;;5092902;28;20043;-62
2022/02/11 10:05:19;;;;;;;12.27;7.30;;;;;;;;;;5092786;28;20077;-63
2022/02/11 10:07:46;;;;;;;15.23;8.98;;;;;;;;;;5092534;28;20024;-61
2022/02/11 10:10:15;;;;;;;15.90;7.80;;;;;;;;;;5092522;28;20028;-60
2022/02/11 10:12:41;;;;;;;11.38;7.22;;;;;;;;;;5092472;28;20463;-63
2022/02/11 10:15:18;;;;;;;11.65;7.00;;;;;;;;;;5092692;28;20060;-62
2022/02/11 10:17:44;;;;;;;12.98;8.60;;;;;;;;;;5092664;28;20008;-62
2022/02/11 10:20:10;;;;;;;14.50;7.95;;;;;;;;;;5092758;28;20024;-59
2022/02/11 10:22:36;;;;;;;13.80;7.78;;;;;;;;;;5092651;28;20019;-61
2022/02/11 10:25:03;;;;;;;13.50;8.30;;;;;;;;;;5092415;28;20026;-62
2022/02/11 10:27:29;;;;;;;14.82;7.78;;;;;;;;;;5092286;28;20048;-62
2022/02/11 10:29:57;;;;;;;11.52;7.60;;;;;;;;;;5092547;28;20020;-63
2022/02/11 10:32:39;;;;;;;15.80;8.48;;;;;;;;;;5092457;28;20259;-59
2022/02/11 10:35:06;;;;;;;16.95;9.05;;;;;;;;;;5092028;28;20058;-62
2022/02/11 10:37:33;;;;;;;12.45;7.88;;;;;;;;;;5092197;28;20406;-63
2022/02/11 10:39:59;;;;;;;14.95;8.45;;;;;;;;;;5092113;28;20026;-61
2022/02/11 10:42:41;;;;;;;14.10;7.90;;;;;;;;;;5092205;28;20054;-61
2022/02/11 10:45:26;;;;;;;15.10;8.30;;;;;;;;;;5092155;28;20368;-62
2022/02/11 10:48:12;;;;;;;12.00;8.13;;;;;;;;;;5092174;28;20016;-61
2022/02/11 10:50:40;;;;;;;14.55;8.32;;;;;;;;;;5092184;28;20106;-63
2022/02/11 10:53:06;;;;;;;13.10;7.75;;;;;;;;;;5091930;28;20032;-61
2022/02/11 10:55:32;;;;;;;12.85;8.13;;;;;;;;;;5091083;28;20024;-62
2022/02/11 10:57:59;;;;;;;13.63;7.78;;;;;;;;;;5092130;28;20032;-59
2022/02/11 11:00:26;;;;;;;14.18;8.52;;;;;;;;;;5091753;28;20038;-62
2022/02/11 11:02:53;;;;;;;13.55;8.70;;;;;;;;;;5091909;28;20032;-62
2022/02/11 11:05:38;;;;;;;13.63;8.65;;;;;;;;;;5091674;28;20467;-62
2022/02/11 11:08:04;;;;;;;17.73;10.20;;;;;;;;;;5091704;28;20028;-63
2022/02/11 11:10:31;;;;;;;15.50;9.48;;;;;;;;;;5091730;28;20034;-61
2022/02/11 11:12:57;;;;;;;17.67;9.00;;;;;;;;;;5091793;28;20108;-60
2022/02/11 11:15:24;;;;;;;17.15;9.32;;;;;;;;;;5091706;28;20016;-61
2022/02/11 11:17:51;;;;;;;15.10;9.35;;;;;;;;;;5091650;28;20477;-59
2022/02/11 11:20:19;;;;;;;14.10;8.52;;;;;;;;;;5091659;28;20070;-59
2022/02/11 11:22:47;;;;;;;12.75;8.35;;;;;;;;;;5073487;28;20028;-62
2022/02/11 11:25:14;;;;;;;16.35;9.98;;;;;;;;;;5091445;28;20095;-60
2022/02/11 11:27:40;;;;;;;16.33;9.75;;;;;;;;;;5073238;28;20016;-63
2022/02/11 11:30:27;;;;;;;16.75;9.57;;;;;;;;;;5091679;28;20024;-62
2022/02/11 11:33:05;;;;;;;15.15;8.32;;;;;;;;;;5091399;28;20111;-60
2022/02/11 11:35:32;;;;;;;13.60;8.50;;;;;;;;;;5091880;28;20054;-61
2022/02/11 11:38:07;;;;;;;15.35;9.10;;;;;;;;;;5091425;28;20498;-63
2022/02/11 11:40:33;;;;;;;12.40;7.25;;;;;;;;;;5091236;28;20031;-60
2022/02/11 11:43:15;;;;;;;13.50;7.43;;;;;;;;;;5091255;28;20034;-63
2022/02/11 11:45:43;;;;;;;12.60;7.67;;;;;;;;;;5091476;28;20503;-61
2022/02/11 11:48:17;;;;;;;14.48;7.70;;;;;;;;;;5073243;28;20032;-62
2022/02/11 11:50:45;;;;;;;14.52;7.07;;;;;;;;;;5091286;28;20039;-63
2022/02/11 11:53:25;;;;;;;11.23;6.53;;;;;;;;;;5091338;28;20055;-60
2022/02/11 11:55:51;;;;;;;11.98;5.97;;;;;;;;;;5091036;28;20018;-61
2022/02/11 11:58:36;;;;;;;13.20;6.60;;;;;;;;;;5090947;28;20048;-62
2022/02/11 12:01:04;;;;;;;9.85;6.00;;;;;;;;;;5090976;28;20044;-64
2022/02/11 12:03:36;;;;;;;11.13;5.97;;;;;;;;;;5091053;28;20021;-62
2022/02/11 12:06:18;;;;;;;11.45;6.53;;;;;;;;;;5090978;28;20031;-63
2022/02/11 12:08:46;;;;;;;12.18;5.82;;;;;;;;;;5095327;28;20023;-59
2022/02/11 12:11:12;;;;;;;10.32;5.75;;;;;;;;;;5076775;28;20466;-62
2022/02/11 12:13:39;;;;;;;11.68;5.43;;;;;;;;;;5094985;28;20036;-62
2022/02/11 12:16:05;;;;;;;11.30;6.00;;;;;;;;;;5095127;28;20045;-63
2022/02/11 12:18:31;;;;;;;9.38;5.22;;;;;;;;;;5094940;28;20071;-62
2022/02/11 12:20:59;;;;;;;10.70;5.30;;;;;;;;;;5094956;28;20044;-62
2022/02/11 12:28:57;;;;;;;10.65;6.18;;;;;;;;;;5094714;28;20097;-62
2022/02/11 12:31:24;;;;;;;7.68;4.55;;;;;;;;;;5076408;28;20012;-63
2022/02/11 12:33:50;;;;;;;8.25;4.43;;;;;;;;;;5094543;28;20042;-62
2022/02/11 12:36:16;;;;;;;8.52;4.65;;;;;;;;;;5094870;28;20486;-63
2022/02/11 12:38:42;;;;;;;7.45;4.40;;;;;;;;;;5094735;28;20055;-60
2022/02/11 12:41:08;;;;;;;8.68;4.45;;;;;;;;;;5094613;28;20020;-59
2022/02/11 12:43:34;;;;;;;8.80;4.80;;;;;;;;;;5094494;28;20032;-63
2022/02/11 12:46:03;;;;;;;9.98;4.20;;;;;;;;;;5094148;28;20103;-63
2022/02/11 12:48:30;;;;;;;7.45;4.57;;;;;;;;;;5094372;28;20016;-59
2022/02/11 12:50:56;;;;;;;8.18;4.03;;;;;;;;;;5094444;28;20031;-62
2022/02/11 12:53:23;;;;;;;8.32;4.85;;;;;;;;;;5094431;28;20084;-61
2022/02/11 12:55:52;;;;;;;8.27;3.80;;;;;;;;;;5094221;28;20031;-62
2022/02/11 12:58:19;;;;;;;7.53;3.80;;;;;;;;;;5094195;28;20028;-60
2022/02/11 13:00:47;;;;;;;9.27;3.97;;;;;;;;;;5093981;28;20543;-59
2022/02/11 13:03:14;;;;;;;7.55;4.07;;;;;;;;;;5094194;28;20378;-60
2022/02/11 13:05:49;;;;;;;5.55;3.30;;;;;;;;;;5094141;28;20081;-59
2022/02/11 13:08:20;;;;;;;6.45;3.03;;;;;;;;;;5094123;28;20503;-62
2022/02/11 13:10:49;;;;;;;6.38;3.40;;;;;;;;;;5094224;28;20127;-59
2022/02/11 13:13:16;;;;;;;7.82;3.20;;;;;;;;;;5093937;28;20032;-60
2022/02/11 13:15:45;;;;;;;5.72;2.95;;;;;;;;;;5093657;28;20028;-60
2022/02/11 13:18:12;;;;;;;5.63;3.17;;;;;;;;;;5093064;28;20440;-60
2022/02/11 13:20:42;;;;;;;5.35;2.90;;;;;;;;;;5093702;28;20049;-60
2022/02/11 13:23:10;;;;;;;6.60;3.25;;;;;;;;;;5093704;28;20063;-62
2022/02/11 13:25:37;;;;;;;7.00;3.25;;;;;;;;;;5093610;28;20024;-61
2022/02/11 13:28:08;;;;;;;8.15;3.22;;;;;;;;;;5093575;28;20028;-61
2022/02/11 13:30:36;;;;;;;6.50;3.10;;;;;;;;;;5093573;28;20016;-60
2022/02/11 13:33:22;;;;;;;6.75;3.28;;;;;;;;;;5093403;28;20025;-60
2022/02/11 13:35:50;;;;;;;6.70;3.20;;;;;;;;;;5093015;28;20072;-62
2022/02/11 13:38:23;;;;;;;5.82;3.17;;;;;;;;;;5093470;28;20041;-60
2022/02/11 13:40:59;;;;;;;7.78;3.30;;;;;;;;;;5093453;28;20024;-62
2022/02/11 13:43:26;;;;;;;6.65;2.75;;;;;;;;;;5093369;28;20069;-62
2022/02/11 13:45:53;;;;;;;5.05;2.60;;;;;;;;;;5093403;28;20099;-61
2022/02/11 13:48:20;;;;;;;6.50;2.60;;;;;;;;;;5093334;28;20031;-64
2022/02/11 13:51:01;;;;;;;6.57;3.03;;;;;;;;;;5093310;28;20020;-59
2022/02/11 13:53:35;;;;;;;5.30;2.70;;;;;;;;;;5093271;28;20031;-60
2022/02/11 13:56:02;;;;;;;8.73;3.53;;;;;;;;;;5092993;28;20494;-64
2022/02/11 13:58:28;;;;;;;5.32;2.63;;;;;;;;;;5074782;28;20094;-61
2022/02/11 14:00:55;;;;;;;7.55;2.55;;;;;;;;;;5092516;28;20047;-61
2022/02/11 14:03:21;;;;;;;5.30;2.38;;;;;;;;;;5075067;28;20020;-62
2022/02/11 14:05:48;;;;;;;5.70;2.67;;;;;;;;;;5093171;28;20382;-62
2022/02/11 14:08:14;;;;;;;5.30;2.40;;;;;;;;;;5092789;28;20024;-61
2022/02/11 14:10:43;;;;;;;5.63;2.88;;;;;;;;;;5092865;28;20499;-64
2022/02/11 14:13:09;;;;;;;6.05;2.67;;;;;;;;;;5092697;28;20110;-62
2022/02/11 14:15:36;;;;;;;4.32;2.30;;;;;;;;;;5092401;28;20020;-63
2022/02/11 14:18:03;;;;;;;4.03;2.00;;;;;;;;;;5092571;28;20051;-63
2022/02/11 14:20:29;;;;;;;5.30;2.33;;;;;;;;;;5092627;28;20653;-61
2022/02/11 14:22:55;;;;;;;4.65;2.20;;;;;;;;;;5092877;28;20028;-62
2022/02/11 14:25:21;;;;;;;4.85;2.17;;;;;;;;;;5092433;28;20073;-63
2022/02/11 14:27:47;;;;;;;3.60;2.00;;;;;;;;;;5092244;28;20020;-63
2022/02/11 14:30:14;;;;;;;3.85;1.98;;;;;;;;;;5092256;28;20042;-63
2022/02/11 14:32:40;;;;;;;4.00;2.10;;;;;;;;;;5092355;28;20474;-64
2022/02/11 14:35:06;;;;;;;4.25;1.85;;;;;;;;;;5092270;28;20039;-62
2022/02/11 14:37:32;;;;;;;3.45;1.85;;;;;;;;;;5092468;28;20016;-61
2022/02/11 14:39:58;;;;;;;4.32;1.90;;;;;;;;;;5092120;28;20111;-61
2022/02/11 14:42:24;;;;;;;3.63;1.75;;;;;;;;;;5092201;28;20414;-63
2022/02/11 14:44:51;;;;;;;4.13;1.90;;;;;;;;;;5092165;28;20024;-63
2022/02/11 14:47:17;;;;;;;4.30;1.85;;;;;;;;;;5092142;28;20020;-62
2022/02/11 14:49:43;;;;;;;4.03;1.60;;;;;;;;;;5092038;28;20479;-60
2022/02/11 14:52:12;;;;;;;3.58;1.52;;;;;;;;;;5091911;28;20412;-62
2022/02/11 14:54:38;;;;;;;3.40;1.65;;;;;;;;;;5092084;28;20118;-63
2022/02/11 14:57:07;;;;;;;4.10;1.77;;;;;;;;;;5091896;28;20055;-59
2022/02/11 14:59:33;;;;;;;3.13;1.50;;;;;;;;;;5091877;28;20024;-62
2022/02/11 15:01:59;;;;;;;3.45;1.77;;;;;;;;;;5091650;28;20087;-64
2022/02/11 15:04:25;;;;;;;3.92;1.88;;;;;;;;;;5091868;28;20028;-63
2022/02/11 15:06:51;;;;;;;3.60;1.63;;;;;;;;;;5091782;28;20498;-62
2022/02/11 15:09:18;;;;;;;3.72;1.67;;;;;;;;;;5092025;28;20082;-62
2022/02/11 15:11:44;;;;;;;4.13;1.70;;;;;;;;;;5091750;28;20016;-61
2022/02/11 15:14:10;;;;;;;3.30;1.52;;;;;;;;;;5091808;28;20055;-60
2022/02/11 15:16:37;;;;;;;3.70;1.65;;;;;;;;;;5091631;28;20017;-62
2022/02/11 15:19:04;;;;;;;4.15;1.90;;;;;;;;;;5091607;28;20027;-62
2022/02/11 15:21:30;;;;;;;3.67;1.67;;;;;;;;;;5091591;28;20028;-60
2022/02/11 15:23:56;;;;;;;2.90;1.55;;;;;;;;;;5091725;28;20020;-59
2022/02/11 15:26:22;;;;;;;2.97;1.48;;;;;;;;;;5091592;28;20024;-59
2022/02/11 15:28:49;;;;;;;2.80;1.40;;;;;;;;;;5091695;28;20020;-62
2022/02/11 15:31:15;;;;;;;2.70;1.30;;;;;;;;;;5091710;28;20047;-63
2022/02/11 15:33:43;;;;;;;4.80;1.67;;;;;;;;;;5091468;28;20082;-63
2022/02/11 15:36:10;;;;;;;3.05;1.50;;;;;;;;;;5091536;28;20038;-63
2022/02/11 15:38:36;;;;;;;2.92;1.40;;;;;;;;;;5091512;28;20035;-62
2022/02/11 15:41:03;;;;;;;3.40;1.60;;;;;;;;;;5091438;28;20031;-62
2022/02/11 15:43:29;;;;;;;2.50;1.30;;;;;;;;;;5095308;28;20028;-63
2022/02/11 15:45:55;;;;;;;2.83;1.42;;;;;;;;;;5095648;28;20028;-63
2022/02/11 15:48:21;;;;;;;2.95;1.40;;;;;;;;;;5095502;28;20024;-63
2022/02/11 15:50:48;;;;;;;2.47;1.27;;;;;;;;;;5095534;28;20097;-63
2022/02/11 15:53:15;;;;;;;2.20;1.13;;;;;;;;;;5095402;28;20036;-62
2022/02/11 15:55:41;;;;;;;2.65;1.23;;;;;;;;;;5095228;28;20022;-61
2022/02/11 15:58:08;;;;;;;2.70;1.10;;;;;;;;;;5095547;28;20420;-60
2022/02/11 16:00:34;;;;;;;2.72;1.17;;;;;;;;;;5095373;28;20506;-63
2022/02/11 16:03:01;;;;;;;2.75;1.30;;;;;;;;;;5095191;28;20027;-63
2022/02/11 16:05:27;;;;;;;1.85;0.98;;;;;;;;;;5095218;28;20319;-62
2022/02/11 16:07:54;;;;;;;2.28;0.90;;;;;;;;;;5095103;28;20024;-62
2022/02/11 16:10:21;;;;;;;2.05;0.90;;;;;;;;;;5077000;28;20137;-59
2022/02/11 16:12:48;;;;;;;2.38;1.10;;;;;;;;;;5095122;28;20059;-61
2022/02/11 16:15:15;;;;;;;2.00;1.00;;;;;;;;;;5095056;28;20104;-62
2022/02/11 16:18:00;;;;;;;3.38;1.23;;;;;;;;;;5094977;28;20031;-60
2022/02/11 16:20:37;;;;;;;2.03;1.10;;;;;;;;;;5076666;28;20055;-62
2022/02/11 16:23:04;;;;;;;1.75;1.00;;;;;;;;;;5095140;28;20532;-60
2022/02/11 16:25:34;;;;;;;2.80;1.20;;;;;;;;;;5094797;28;20475;-63
2022/02/11 16:28:01;;;;;;;3.03;1.00;;;;;;;;;;5094943;28;20016;-63
2022/02/11 16:30:27;;;;;;;2.13;0.82;;;;;;;;;;5094798;28;20123;-62
2022/02/11 16:32:55;;;;;;;2.55;1.10;;;;;;;;;;5094546;28;20487;-60
2022/02/11 16:35:21;;;;;;;1.45;0.80;;;;;;;;;;5094628;28;20023;-63
2022/02/11 16:37:47;;;;;;;2.72;1.00;;;;;;;;;;5094510;28;20016;-61
2022/02/11 16:40:14;;;;;;;2.22;0.80;;;;;;;;;;5094661;28;20059;-62
2022/02/11 16:42:40;;;;;;;1.95;0.80;;;;;;;;;;5094462;28;20016;-62
2022/02/11 16:45:08;;;;;;;1.73;0.80;;;;;;;;;;5094404;28;20024;-63
2022/02/11 16:47:36;;;;;;;2.95;0.98;;;;;;;;;;5094162;28;20509;-60
2022/02/11 16:50:02;;;;;;;2.92;0.95;;;;;;;;;;5094372;28;20443;-66
2022/02/11 16:52:29;;;;;;;2.95;1.00;;;;;;;;;;5094241;28;20073;-61
2022/02/11 16:54:55;;;;;;;1.58;0.73;;;;;;;;;;5094297;28;20019;-59
2022/02/11 16:57:21;;;;;;;2.80;0.98;;;;;;;;;;5094247;28;20024;-61
2022/02/11 16:59:50;;;;;;;1.67;0.70;;;;;;;;;;5094228;28;20479;-60
2022/02/11 17:02:19;;;;;;;3.05;1.20;;;;;;;;;;5093942;28;20047;-64
2022/02/11 17:04:46;;;;;;;1.63;0.77;;;;;;;;;;5094152;28;20025;-62
2022/02/11 17:07:12;;;;;;;2.85;0.90;;;;;;;;;;5094067;28;20099;-61
2022/02/11 17:09:38;;;;;;;1.02;0.57;;;;;;;;;;5093882;28;20106;-63
2022/02/11 17:12:04;;;;;;;1.15;0.70;;;;;;;;;;5093702;28;20016;-60
2022/02/11 17:14:30;;;;;;;0.95;0.60;;;;;;;;;;5093831;28;20409;-61
2022/02/11 17:16:57;;;;;;;1.05;0.70;;;;;;;;;;5093763;28;20099;-60
2022/02/11 17:19:23;;;;;;;2.13;0.95;;;;;;;;;;5093989;28;20024;-62
2022/02/11 17:21:50;;;;;;;1.60;0.70;;;;;;;;;;5093773;28;20453;-60
2022/02/11 17:24:16;;;;;;;1.40;0.70;;;;;;;;;;5093792;28;20027;-63
2022/02/11 17:26:42;;;;;;;1.42;0.70;;;;;;;;;;5093500;28;20032;-62
2022/02/11 17:29:12;;;;;;;2.13;0.90;;;;;;;;;;5093523;28;20048;-61
2022/02/11 17:31:38;;;;;;;1.67;0.75;;;;;;;;;;5093615;28;20036;-63
2022/02/11 17:34:05;;;;;;;1.55;0.70;;;;;;;;;;5093644;28;20032;-59
2022/02/11 17:36:31;;;;;;;1.50;0.77;;;;;;;;;;5093650;28;20538;-61
2022/02/11 17:38:58;;;;;;;0.98;0.52;;;;;;;;;;5093469;28;20032;-62
2022/02/11 17:41:24;;;;;;;1.13;0.50;;;;;;;;;;5093532;28;20540;-63
2022/02/11 17:43:50;;;;;;;1.60;0.70;;;;;;;;;;5093244;28;20085;-63
2022/02/11 17:46:17;;;;;;;2.03;0.90;;;;;;;;;;5093425;28;20024;-62
2022/02/11 17:48:43;;;;;;;2.97;0.70;;;;;;;;;;5093348;28;20052;-62
2022/02/11 17:51:09;;;;;;;3.17;1.08;;;;;;;;;;5093254;28;20012;-60
2022/02/11 17:53:35;;;;;;;1.70;0.70;;;;;;;;;;5093166;28;20028;-62
2022/02/11 17:56:01;;;;;;;1.92;0.77;;;;;;;;;;5093085;28;20023;-62
2022/02/11 17:58:28;;;;;;;1.98;1.00;;;;;;;;;;5093131;28;20056;-60
2022/02/11 18:00:57;;;;;;;1.63;0.63;;;;;;;;;;5092776;28;20579;-62
2022/02/11 18:03:23;;;;;;;3.50;0.80;;;;;;;;;;5092903;28;20024;-62
2022/02/11 18:05:49;;;;;;;1.75;0.90;;;;;;;;;;5073937;28;20375;-63
2022/02/11 18:08:16;;;;;;;3.50;0.90;;;;;;;;;;5092715;28;20024;-60
2022/02/11 18:10:42;;;;;;;1.67;0.77;;;;;;;;;;5092725;28;20545;-61
2022/02/11 18:13:11;;;;;;;1.25;0.73;;;;;;;;;;5092390;28;20024;-62
2022/02/11 18:15:37;;;;;;;2.63;0.80;;;;;;;;;;5074439;28;20103;-62
2022/02/11 18:18:03;;;;;;;2.78;1.00;;;;;;;;;;5092690;28;20028;-62
2022/02/11 18:20:29;;;;;;;1.08;0.57;;;;;;;;;;5092730;28;20056;-63
2022/02/11 18:22:55;;;;;;;1.30;0.60;;;;;;;;;;5092775;28;20035;-62
2022/02/11 18:25:21;;;;;;;1.75;0.70;;;;;;;;;;5092506;28;20020;-60
2022/02/11 18:27:48;;;;;;;1.70;0.70;;;;;;;;;;5092547;28;20538;-60
2022/02/11 18:30:14;;;;;;;0.98;0.60;;;;;;;;;;5092708;28;20028;-62
2022/02/11 18:32:40;;;;;;;2.08;0.90;;;;;;;;;;5092510;28;20452;-60
2022/02/11 18:35:06;;;;;;;2.60;0.88;;;;;;;;;;5092296;28;20031;-62
2022/02/11 18:37:33;;;;;;;4.43;0.90;;;;;;;;;;5092050;28;20023;-60
2022/02/11 18:39:59;;;;;;;2.10;0.75;;;;;;;;;;5092162;28;20550;-62